Tiempo atmosférico en la estación meteorológica de Amieva, Panizales, Asturias (360 m.)



Fecha
DESCASC
Temp. máxima en grados centígrados (hora)
DESCASC
Temp. mínima en grados centígrados (hora)
DESCASC
Temp. media en grados centígrados
DESCASC
Racha de viento máxima en m/sg (hora)
DESCASC
Velocidad máxima media en intervalos de 10 minutos(hora)
DESCASC
Precipitaciones diarias en mm
DESCASC
Precipitaciones de 00:00 a 06:00 en mm
DESCASC
Precipitaciones de 06:00 a 12:00 en mm
DESCASC
Precipitaciones de 12:00 a 18:00 en mm
DESCASC
Precipitaciones de 18:00 a 24:00 en mm
DESCASC
02-04-2020 11.8 (16:30) 7.2 (23:59) 9.5 5.83 (14:10) 2.78 (13:20) 1.8 0.8 1 0 0
01-04-2020 15.8 (15:00) 3.6 (02:00) 9.7 5 (15:30) 2.5 (15:00) 1.8 0 0.2 0 1.6
31-03-2020 9.5 (14:00) 0.4 (00:00) 5 5.83 (15:00) 3.33 (15:00) 1.2 1.2 0 0 0
30-03-2020 5.1 (00:00) 0.6 (00:00) 2.8 8.61 (00:10) 4.17 (00:10) 18.4 4.4 3.4 6.6 4
29-03-2020 12.4 (17:00) 4.9 (00:00) 8.6 10.56 (22:00) 5 (23:30) 1.4 0 0 0 1.4
28-03-2020 17.5 (14:50) 1.3 (00:00) 9.4 8.61 (15:10) 4.44 (14:10) 0 0 0 0 0
27-03-2020 14.4 (13:00) 0.5 (00:00) 7.4 7.78 (14:40) 3.61 (12:30) 0 0 0 0 0
26-03-2020 13.6 (15:40) 4.1 (00:00) 8.9 9.17 (16:00) 4.17 (15:40) 0 0 0 0 0
25-03-2020 19.6 (14:30) 5 (00:00) 12.3 8.33 (14:30) 4.17 (14:20) 0 0 0 0 0
24-03-2020 21 (14:30) 5.2 (00:00) 13.1 8.61 (16:20) 4.17 (13:00) 0 0 0 0 0
23-03-2020 15.2 (12:00) 9.1 (00:00) 12.2 5.83 (13:50) 3.06 (14:40) 0 0 0 0 0
22-03-2020 16.6 (14:20) 8.9 (00:10) 12.8 7.22 (16:00) 2.78 (16:00) 0 0 0 0 0
21-03-2020 19.9 (13:40) 7.9 (00:00) 13.9 7.78 (13:10) 4.17 (13:10) 0 0 0 0 0
20-03-2020 15.2 (17:40) 7.9 (00:00) 11.5 5.28 (09:20) 2.22 (10:30) 0.2 0.2 0 0 0
19-03-2020 17.3 (14:40) 6.8 (00:00) 12 4.17 (13:20) 2.22 (13:00) 0 0 0 0 0
18-03-2020 20.8 (15:30) 5.8 (00:00) 13.3 5.83 (14:20) 3.06 (14:20) 0 0 0 0 0
17-03-2020 13.5 (13:00) 6 (00:00) 9.8 6.11 (15:10) 2.78 (12:50) 1.2 1.2 0 0 0
16-03-2020 9.6 (14:50) 1.8 (00:00) 5.7 7.22 (14:50) 3.61 (14:50) 21.6 8.4 5.6 6.8 0.8
15-03-2020 14.7 (15:00) 2.3 (00:00) 8.5 6.11 (11:30) 2.78 (11:50) 16.2 0 0 3.2 13
14-03-2020 17.6 (14:30) 3.8 (00:00) 10.7 8.06 (16:20) 3.33 (12:40) 0 0 0 0 0
13-03-2020 11.8 (13:00) 7 (08:00) 9.4 5.83 (03:10) 3.06 (02:50) 2.8 2.2 0.6 0 0
12-03-2020 12.5 (14:10) 8.2 (00:00) 10.3 6.11 (14:20) 2.78 (14:20) 2.6 0 0.2 0.4 2
11-03-2020 22.7 (15:30) 4.9 (00:00) 13.8 6.67 (16:30) 3.89 (14:20) 0 0 0 0 0
10-03-2020 19.6 (15:50) 4.7 (00:00) 12.2 6.94 (15:40) 3.61 (14:10) 0 0 0 0 0
09-03-2020 16.2 (17:20) 6.7 (00:00) 11.5 4.72 (15:20) 2.78 (15:20) 1 1 0 0 0
08-03-2020 19 (14:50) 3.3 (00:00) 11.1 6.67 (14:10) 2.78 (14:10) 0.4 0 0 0 0.4
07-03-2020 16 (15:00) 4.1 (00:00) 10 6.39 (17:20) 2.78 (16:00) 2 1 1 0 0
06-03-2020 8.3 (00:30) 4.4 (00:00) 6.4 12.5 (08:40) 4.44 (08:40) 17 3.6 6 6.8 0.6
05-03-2020 18 (01:40) 6.2 (00:00) 12.1 15 (02:10) 7.5 (02:10) 12.2 0 8 3.6 0.6

Gráficas

Temp. máximas Temp. mínimas Temp. medias Precipitaciones Rachas de viento máximas Velocidades máximas media en intervalos de 10 minutos

Datos horarios

Fecha y hora oficial Temperatura (ºC) Velocidad del viento (km/h) Dirección del viento Racha (km/h) Dirección de racha Precipitación (mm) Presión (hPa) Tendencia (hPa) Humedad (%)
2020-04-03 23:00:00 6.7 0 Calma 4 Nordeste 0 -- -- 92
2020-04-03 22:00:00 7.7 0 Calma 4 Oeste 0 -- -- 87
2020-04-03 21:00:00 10 0 Calma 11 Oeste 0 -- -- 78
2020-04-03 20:00:00 14.1 5 Sur 18 Oeste 0 -- -- 64
2020-04-03 19:00:00 15.5 8 Oeste 24 Oeste 0 -- -- 60
2020-04-03 18:00:00 16.8 12 Sudoeste 25 Oeste 0 -- -- 56
2020-04-03 17:00:00 16.9 12 Oeste 28 Oeste 0 -- -- 55
2020-04-03 16:00:00 16.5 12 Sudoeste 26 Oeste 0 -- -- 58
2020-04-03 15:00:00 16.3 9 Sudoeste 27 Sudoeste 0 -- -- 59
2020-04-03 14:00:00 14.7 9 Sudoeste 22 Sudoeste 0 -- -- 60
2020-04-03 13:00:00 13.4 12 Sudoeste 19 Oeste 0 -- -- 65
2020-04-03 12:00:00 11.5 8 Sudoeste 14 Sudoeste 0 -- -- 74
2020-04-03 11:00:00 8.9 4 Sur 6 Sudoeste 0 -- -- 78
2020-04-03 10:00:00 5.3 0 Calma 3 Sudoeste 0 -- -- 95
2020-04-03 09:00:00 2.6 0 Calma 3 Nordeste 0 -- -- 99
2020-04-03 08:00:00 2.5 0 Calma 6 Sudoeste 0 -- -- 98
2020-04-03 07:00:00 3.5 0 Calma 3 Norte 0 -- -- 99
2020-04-03 06:00:00 4.1 0 Calma 3 Nordeste 0 -- -- 99
2020-04-03 05:00:00 5.1 2 Oeste 3 Sudoeste 0 -- -- 96
2020-04-03 04:00:00 5.5 0 Calma 4 Nordeste 0 -- -- 98
2020-04-03 03:00:00 5.5 3 Nordeste 3 Nordeste 0 -- -- 96
2020-04-03 02:00:00 6.7 0 Calma 3 Nordeste 0 -- -- 95
2020-04-03 01:00:00 7.1 0 Calma 4 Noroeste 0 -- -- 92
2020-04-03 00:00:00 7.2 0 Calma 4 Este 0 -- -- 87
2020-04-02 23:00:00 7.8 2 Nordeste 6 Noroeste 0 -- -- 82
2020-04-02 22:00:00 8.1 0 Calma 10 Oeste 0 -- -- 80
2020-04-02 21:00:00 8.5 4 Noroeste 12 Nordeste 0 -- -- 76
2020-04-02 20:00:00 9.5 3 Sur 12 Oeste 0 -- -- 79
2020-04-02 19:00:00 10.2 7 Oeste 15 Noroeste 0 -- -- 79
2020-04-02 18:00:00 10.6 6 Oeste 16 Oeste 0 -- -- 82
2020-04-02 17:00:00 11.4 3 Norte 17 Sudoeste 0 -- -- 81
2020-04-02 16:00:00 11.4 5 Sudoeste 16 Oeste 0 -- -- 82
2020-04-02 15:00:00 11.1 8 Sudoeste 21 Sudoeste 0 -- -- 85
2020-04-02 14:00:00 10.5 4 Oeste 18 Oeste 0 -- -- 88
2020-04-02 13:00:00 10.4 5 Sudoeste 20 Oeste 0 -- -- 95
2020-04-02 12:00:00 9.9 4 Oeste 20 Oeste 0 -- -- 98
2020-04-02 11:00:00 9.5 5 Oeste 15 Oeste 0 -- -- 100
2020-04-02 10:00:00 9.1 4 Oeste 13 Oeste 0.6 -- -- 100
2020-04-02 09:00:00 8.9 5 Oeste 10 Oeste 0.4 -- -- 100
2020-04-02 08:00:00 8.9 0 Calma 5 Sur 0 -- -- 100
2020-04-02 07:00:00 8.8 0 Calma 4 Oeste 0 -- -- 100
2020-04-02 06:00:00 8.9 0 Calma 3 Oeste 0 -- -- 100
2020-04-02 05:00:00 9 0 Calma 8 Nordeste 0 -- -- 100
2020-04-02 04:00:00 8.9 0 Calma 6 Sudoeste 0.2 -- -- 100
2020-04-02 03:00:00 8.9 0 Calma 5 Sur 0.6 -- -- 100
2020-04-02 02:00:00 9 2 Noroeste 6 Norte 0 -- -- 99
2020-04-02 01:00:00 8.9 3 Norte 6 Norte 0 -- -- 98
2020-04-02 00:00:00 9.1 0 Calma 5 Nordeste 0.8 -- -- 99
2020-04-01 23:00:00 9.3 4 Nordeste 6 Nordeste 0.6 -- -- 96
2020-04-01 22:00:00 9.8 0 Calma 8 Oeste 0.2 -- -- 96
2020-04-01 21:00:00 10.5 2 Sudoeste 11 Noroeste 0 -- -- 89
2020-04-01 20:00:00 11.5 0 Calma 8 Sudoeste 0 -- -- 89
2020-04-01 19:00:00 12.1 2 Oeste 10 Oeste 0 -- -- 86
2020-04-01 18:00:00 13.6 5 Sudoeste 13 Oeste 0 -- -- 76
2020-04-01 17:00:00 14.3 8 Sudoeste 17 Oeste 0 -- -- 68
2020-04-01 16:00:00 14 6 Oeste 18 Oeste 0 -- -- 69
2020-04-01 15:00:00 15.8 9 Sudoeste 16 Sudoeste 0 -- -- 67
2020-04-01 14:00:00 12.5 3 Sudoeste 8 Sudoeste 0 -- -- 78
2020-04-01 13:00:00 10.7 3 Oeste 9 Oeste 0 -- -- 82
2020-04-01 12:00:00 9.7 3 Sudoeste 9 Sudoeste 0 -- -- 90
2020-04-01 11:00:00 7.9 2 Sur 6 Oeste 0 -- -- 98
2020-04-01 10:00:00 6.4 0 Calma 3 Sudoeste 0 -- -- 98
2020-04-01 09:00:00 5.4 0 Calma 3 Sudoeste 0.2 -- -- 99
2020-04-01 08:00:00 4.7 0 Calma 4 Nordeste 0 -- -- 99
2020-04-01 07:00:00 4.3 0 Calma 6 Nordeste 0 -- -- 99
2020-04-01 06:00:00 4.3 0 Calma 5 Norte 0 -- -- 99
2020-04-01 05:00:00 4.7 0 Calma 6 Nordeste 0 -- -- 97
2020-04-01 04:00:00 4.4 0 Calma 5 Norte 0 -- -- 99
2020-04-01 03:00:00 4.1 0 Calma 8 Norte 0 -- -- 98
2020-04-01 02:00:00 3.6 0 Calma 4 Nordeste 0 -- -- 98
2020-04-01 01:00:00 4.7 0 Calma 6 Nordeste 0 -- -- 97
2020-04-01 00:00:00 5.3 0 Calma 3 Nordeste 0 -- -- 97
2020-03-31 23:00:00 5.8 0 Calma 3 Nordeste 0 -- -- 96
2020-03-31 22:00:00 6 0 Calma 4 Este 0 -- -- 95
2020-03-31 21:00:00 6.9 0 Calma 4 Oeste 0 -- -- 91
2020-03-31 20:00:00 7.7 2 Sudoeste 9 Oeste 0 -- -- 87
2020-03-31 19:00:00 8.1 4 Noroeste 12 Noroeste 0 -- -- 84
2020-03-31 18:00:00 7.8 4 Oeste 16 Sudoeste 0 -- -- 81
2020-03-31 17:00:00 8.6 6 Oeste 17 Sudoeste 0 -- -- 75
2020-03-31 16:00:00 7.5 4 Oeste 19 Oeste 0 -- -- 80
2020-03-31 15:00:00 8.3 12 Oeste 21 Oeste 0 -- -- 74
2020-03-31 14:00:00 9.5 8 Sudoeste 16 Oeste 0 -- -- 69
2020-03-31 13:00:00 7.8 8 Sudeste 13 Sudoeste 0 -- -- 67
2020-03-31 12:00:00 6.3 6 Sur 10 Sur 0 -- -- 76
2020-03-31 11:00:00 4 3 Sur 6 Sudoeste 0 -- -- 96
2020-03-31 10:00:00 1.4 0 Calma 4 Sudoeste 0 -- -- 100
2020-03-31 09:00:00 0.7 2 Este 4 Nordeste 0 -- -- 100
2020-03-31 08:00:00 0.4 3 Nordeste 4 Nordeste 0 -- -- 100
2020-03-31 07:00:00 0.5 0 Calma 5 Este 0 -- -- 100
2020-03-31 06:00:00 0.5 0 Calma 4 Norte 0 -- -- 100
2020-03-31 05:00:00 0.7 0 Calma 3 Nordeste 0 -- -- 100
2020-03-31 04:00:00 0.8 0 Calma 7 Norte 0.2 -- -- 100
2020-03-31 03:00:00 0.8 0 Calma 6 Noroeste 0 -- -- 100
2020-03-31 02:00:00 1 0 Calma 8 Norte 0.2 -- -- 100
2020-03-31 01:00:00 0.8 0 Calma 6 Norte 0.8 -- -- 100
2020-03-31 00:00:00 1.1 6 Norte 9 Norte 0.6 -- -- 99
2020-03-30 23:00:00 0.9 4 Oeste 8 Sudoeste 0.8 -- -- 100
2020-03-30 22:00:00 1 4 Nordeste 9 Norte 0.8 -- -- 99
2020-03-30 21:00:00 1.2 2 Nordeste 9 Norte 1.2 -- -- 96
2020-03-30 20:00:00 2.5 0 Calma 8 Oeste 0.6 -- -- 95
2020-03-30 19:00:00 3.6 4 Oeste 15 Sudoeste 0 -- -- 91
2020-03-30 18:00:00 2.4 3 Sudoeste 21 Oeste 0.8 -- -- 99
2020-03-30 17:00:00 3.1 7 Sudoeste 17 Oeste 0.6 -- -- 96
2020-03-30 16:00:00 2.7 4 Sudoeste 23 Oeste 1.2 -- -- 98
2020-03-30 15:00:00 4.2 11 Sudoeste 24 Oeste 0.2 -- -- 99
2020-03-30 14:00:00 2.5 7 Sur 24 Oeste 1 -- -- 100
2020-03-30 13:00:00 2.6 6 Sudoeste 25 Oeste 2.8 -- -- 100
2020-03-30 12:00:00 1 0 Calma 18 Oeste 1.2 -- -- 99
2020-03-30 11:00:00 2.2 5 Oeste 17 Norte 0.6 -- -- 92
2020-03-30 10:00:00 2.2 3 Sudeste 21 Noroeste 0.8 -- -- 98
2020-03-30 09:00:00 2.9 7 Oeste 15 Sudoeste 0.2 -- -- 96
2020-03-30 08:00:00 2.4 3 Nordeste 7 Este 0.2 -- -- 98
2020-03-30 07:00:00 2.7 3 Este 10 Oeste 0.4 -- -- 98
2020-03-30 06:00:00 3 8 Oeste 24 Oeste 1.4 -- -- 93
2020-03-30 05:00:00 3.5 4 Nordeste 11 Noroeste 0 -- -- 95
2020-03-30 04:00:00 3.7 12 Oeste 27 Oeste 0.2 -- -- 94
2020-03-30 03:00:00 3.6 5 Sur 29 Sudoeste 1.8 -- -- 95
2020-03-30 02:00:00 4.2 4 Sudoeste 26 Noroeste 0.8 -- -- 96
2020-03-30 01:00:00 5 5 Sudoeste 31 Oeste 0.2 -- -- 92
2020-03-30 00:00:00 5.1 14 Oeste 37 Noroeste 0.6 -- -- 94
2020-03-29 23:00:00 5.7 16 Oeste 36 Oeste 0.4 -- -- 95
2020-03-29 22:00:00 6.2 15 Oeste 38 Oeste 0.2 -- -- 95
2020-03-29 21:00:00 6.8 12 Oeste 27 Oeste 0.2 -- -- 94
2020-03-29 20:00:00 8.2 14 Oeste 32 Oeste 0 -- -- 89
2020-03-29 19:00:00 9.8 9 Noroeste 23 Noroeste 0 -- -- 79
2020-03-29 18:00:00 11.3 10 Oeste 31 Noroeste 0 -- -- 63
2020-03-29 17:00:00 12.4 9 Sudoeste 20 Oeste 0 -- -- 65
2020-03-29 16:00:00 11.1 5 Sudoeste 18 Sudoeste 0 -- -- 75
2020-03-29 15:00:00 11.4 7 Sudoeste 12 Sudoeste 0 -- -- 72
2020-03-29 14:00:00 11.2 5 Sudoeste 10 Oeste 0 -- -- 72
2020-03-29 13:00:00 10.6 3 Sudoeste 8 Sudoeste 0 -- -- 72
2020-03-29 12:00:00 9.9 4 Sur 6 Sur 0 -- -- 81
2020-03-29 11:00:00 8.2 0 Calma 3 Sur 0 -- -- 85
2020-03-29 10:00:00 7.2 0 Calma 3 Oeste 0 -- -- 88
2020-03-29 09:00:00 6.6 0 Calma 3 Sudoeste 0 -- -- 89
2020-03-29 08:00:00 6.1 0 Calma 3 Oeste 0 -- -- 95
2020-03-29 07:00:00 6.6 0 Calma 3 Nordeste 0 -- -- 92
2020-03-29 06:00:00 6.6 2 Sudoeste 4 Sudoeste 0 -- -- 89
2020-03-29 05:00:00 6.7 0 Calma 4 Sudoeste 0 -- -- 92
2020-03-29 03:00:00 5.6 0 Calma 3 Norte 0 -- -- 98
2020-03-29 01:00:00 4.9 0 Calma 2 Norte 0 -- -- 97
2020-03-29 00:00:00 5.4 0 Calma 3 Nordeste 0 -- -- 98
2020-03-28 23:00:00 5.7 0 Calma 2 Norte 0 -- -- 96
2020-03-28 22:00:00 6.4 0 Calma 4 Nordeste 0 -- -- 93
2020-03-28 21:00:00 7.3 3 Este 4 Nordeste 0 -- -- 89
2020-03-28 20:00:00 9.5 3 Nordeste 13 Oeste 0 -- -- 78
2020-03-28 19:00:00 12.5 6 Oeste 22 Noroeste 0 -- -- 69
2020-03-28 18:00:00 14.5 9 Oeste 23 Noroeste 0 -- -- 59
2020-03-28 17:00:00 16.6 12 Sudoeste 28 Sudoeste 0 -- -- 55
2020-03-28 16:00:00 17.2 12 Oeste 31 Sudoeste 0 -- -- 54
2020-03-28 15:00:00 17.4 13 Sudoeste 30 Sudoeste 0 -- -- 50
2020-03-28 14:00:00 17.1 15 Sudoeste 28 Oeste 0 -- -- 48
2020-03-28 13:00:00 15.9 15 Sudoeste 28 Sudoeste 0 -- -- 53
2020-03-28 12:00:00 15.2 10 Sudoeste 23 Sudoeste 0 -- -- 58
2020-03-28 11:00:00 11.4 7 Sudoeste 14 Oeste 0 -- -- 64
2020-03-28 10:00:00 9.2 3 Sudoeste 8 Sur 0 -- -- 65
2020-03-28 09:00:00 5.1 0 Calma 4 Norte 0 -- -- 72
2020-03-28 08:00:00 2.1 0 Calma 4 Norte 0 -- -- 90
2020-03-28 07:00:00 1.4 0 Calma 6 Norte 0 -- -- 92
2020-03-28 06:00:00 1.6 0 Calma 3 Nordeste 0 -- -- 93
2020-03-28 05:00:00 1.7 0 Calma 4 Norte 0 -- -- 96
2020-03-28 04:00:00 2.2 0 Calma 4 Norte 0 -- -- 97
2020-03-28 03:00:00 2.4 0 Calma 3 Nordeste 0 -- -- 96
2020-03-28 02:00:00 2.9 0 Calma 2 Norte 0 -- -- 96
2020-03-28 01:00:00 3.3 0 Calma 3 Nordeste 0 -- -- 95
2020-03-28 00:00:00 3.7 0 Calma 3 Nordeste 0 -- -- 95
2020-03-27 23:00:00 4.1 0 Calma 2 Nordeste 0 -- -- 93
2020-03-27 22:00:00 5 0 Calma 4 Nordeste 0 -- -- 89
2020-03-27 21:00:00 6 3 Nordeste 6 Nordeste 0 -- -- 87
2020-03-27 20:00:00 8.3 3 Este 12 Noroeste 0 -- -- 77
2020-03-27 19:00:00 10.5 5 Oeste 17 Noroeste 0 -- -- 68
2020-03-27 18:00:00 12 5 Noroeste 21 Noroeste 0 -- -- 65
2020-03-27 17:00:00 13 10 Oeste 22 Sudoeste 0 -- -- 62
2020-03-27 16:00:00 13.1 9 Noroeste 25 Oeste 0 -- -- 59
2020-03-27 15:00:00 13 12 Oeste 28 Oeste 0 -- -- 56
2020-03-27 14:00:00 13.6 8 Oeste 21 Noroeste 0 -- -- 53
2020-03-27 13:00:00 14.4 10 Sudoeste 26 Oeste 0 -- -- 48
2020-03-27 12:00:00 12.4 9 Sudoeste 24 Sudoeste 0 -- -- 50
2020-03-27 11:00:00 10.1 7 Sudoeste 12 Sudoeste 0 -- -- 56
2020-03-27 10:00:00 6.8 3 Sur 6 Sur 0 -- -- 68
2020-03-27 09:00:00 2.8 2 Oeste 5 Sudoeste 0 -- -- 87
2020-03-27 08:00:00 0.7 0 Calma 3 Nordeste 0 -- -- 95
2020-03-27 07:00:00 0.7 2 Noroeste 5 Norte 0 -- -- 92
2020-03-27 06:00:00 1.7 3 Oeste 6 Sur 0 -- -- 90
2020-03-27 05:00:00 1.4 3 Nordeste 6 Norte 0 -- -- 91
2020-03-27 04:00:00 1.5 0 Calma 5 Este 0 -- -- 91
2020-03-27 03:00:00 2.1 2 Norte 6 Nordeste 0 -- -- 89
2020-03-27 02:00:00 2.6 0 Calma 5 Nordeste 0 -- -- 86
2020-03-27 01:00:00 4.9 4 Nordeste 9 Norte 0 -- -- 78
2020-03-27 00:00:00 6.1 5 Noroeste 8 Norte 0 -- -- 72
2020-03-26 23:00:00 6.8 2 Noroeste 14 Oeste 0 -- -- 72
2020-03-26 22:00:00 7.1 6 Noroeste 15 Noroeste 0 -- -- 74
2020-03-26 21:00:00 7.8 5 Noroeste 19 Noroeste 0 -- -- 73
2020-03-26 20:00:00 8.2 4 Noroeste 20 Noroeste 0 -- -- 69
2020-03-26 19:00:00 9.3 4 Noroeste 24 Sudoeste 0 -- -- 62
2020-03-26 18:00:00 10.6 5 Sudoeste 24 Sudoeste 0 -- -- 58
2020-03-26 17:00:00 11.3 4 Nordeste 27 Sudoeste 0 -- -- 55
2020-03-26 16:00:00 12.4 10 Oeste 33 Noroeste 0 -- -- 52
2020-03-26 15:00:00 12.2 7 Este 23 Sudoeste 0 -- -- 51
2020-03-26 14:00:00 11.3 4 Oeste 25 Sudoeste 0 -- -- 54
2020-03-26 13:00:00 11.3 10 Oeste 22 Oeste 0 -- -- 58
2020-03-26 12:00:00 10.3 10 Sudoeste 24 Oeste 0 -- -- 65
2020-03-26 11:00:00 9.5 7 Sudoeste 16 Oeste 0 -- -- 72
2020-03-26 10:00:00 7.8 3 Sur 5 Sur 0 -- -- 76
2020-03-26 09:00:00 5.6 0 Calma 4 Oeste 0 -- -- 84
2020-03-26 08:00:00 4.2 0 Calma 5 Oeste 0 -- -- 94
2020-03-26 07:00:00 4.2 0 Calma 4 Oeste 0 -- -- 92
2020-03-26 06:00:00 5.3 0 Calma 6 Norte 0 -- -- 92
2020-03-26 05:00:00 5 3 Norte 5 Norte 0 -- -- 95
2020-03-26 04:00:00 5 2 Nordeste 3 Norte 0 -- -- 95
2020-03-26 03:00:00 5 0 Calma 3 Nordeste 0 -- -- 96
2020-03-26 02:00:00 6.5 0 Calma 5 Este 0 -- -- 94
2020-03-26 01:00:00 6.8 0 Calma 3 Noroeste 0 -- -- 99
2020-03-26 00:00:00 5 0 Calma 5 Nordeste 0 -- -- 98
2020-03-25 23:00:00 5.5 2 Nordeste 4 Oeste 0 -- -- 96
2020-03-25 22:00:00 6.7 0 Calma 5 Nordeste 0 -- -- 93
2020-03-25 21:00:00 7.7 0 Calma 4 Noroeste 0 -- -- 89
2020-03-25 20:00:00 9.3 0 Calma 8 Oeste 0 -- -- 82
2020-03-25 19:00:00 13.5 6 Oeste 16 Oeste 0 -- -- 68
2020-03-25 18:00:00 15.4 5 Oeste 22 Oeste 0 -- -- 58
2020-03-25 17:00:00 16.1 8 Oeste 25 Sudoeste 0 -- -- 54
2020-03-25 16:00:00 16.8 13 Oeste 25 Noroeste 0 -- -- 57
2020-03-25 15:00:00 18.3 9 Oeste 30 Oeste 0 -- -- 47
2020-03-25 14:00:00 19.1 13 Sudoeste 24 Oeste 0 -- -- 42
2020-03-25 13:00:00 18.3 10 Sudoeste 23 Oeste 0 -- -- 46
2020-03-25 12:00:00 17.6 10 Sudoeste 19 Sudoeste 0 -- -- 54
2020-03-25 11:00:00 14.4 4 Oeste 10 Oeste 0 -- -- 71
2020-03-25 10:00:00 11.6 3 Sudoeste 6 Sudoeste 0 -- -- 78
2020-03-25 09:00:00 7.7 0 Calma 4 Noroeste 0 -- -- 97
2020-03-25 08:00:00 5.7 0 Calma 2 Noroeste 0 -- -- 99
2020-03-25 07:00:00 5.3 0 Calma 2 Nordeste 0 -- -- 98
2020-03-25 06:00:00 6.1 0 Calma 4 Nordeste 0 -- -- 98
2020-03-25 05:00:00 6.4 0 Calma 4 Este 0 -- -- 97
2020-03-25 04:00:00 6.3 0 Calma 3 Nordeste 0 -- -- 97
2020-03-25 03:00:00 6.8 0 Calma 5 Este 0 -- -- 97
2020-03-25 02:00:00 7.2 2 Nordeste 3 Nordeste 0 -- -- 96
2020-03-25 01:00:00 7.6 0 Calma 5 Norte 0 -- -- 95
2020-03-25 00:00:00 8.5 2 Oeste 5 Nordeste 0 -- -- 92
2020-03-24 23:00:00 8.6 2 Nordeste 5 Este 0 -- -- 93
2020-03-24 22:00:00 9.4 0 Calma 3 Nordeste 0 -- -- 89
2020-03-24 21:00:00 10.4 2 Nordeste 5 Este 0 -- -- 85
2020-03-24 20:00:00 12.5 4 Este 12 Noroeste 0 -- -- 77
2020-03-24 19:00:00 16.5 6 Oeste 16 Oeste 0 -- -- 63
2020-03-24 18:00:00 18 10 Sudoeste 25 Sudoeste 0 -- -- 58
2020-03-24 17:00:00 19 8 Oeste 31 Sudoeste 0 -- -- 56
2020-03-24 16:00:00 19.4 9 Oeste 25 Sudoeste 0 -- -- 57
2020-03-24 15:00:00 20.5 14 Oeste 27 Oeste 0 -- -- 55
2020-03-24 14:00:00 20.4 12 Sudoeste 25 Sudoeste 0 -- -- 55
2020-03-24 13:00:00 18.7 15 Oeste 29 Sudoeste 0 -- -- 57
2020-03-24 12:00:00 16.9 8 Sur 14 Sudoeste 0 -- -- 64
2020-03-24 11:00:00 13.8 5 Oeste 12 Oeste 0 -- -- 74
2020-03-24 10:00:00 11.1 3 Sudoeste 5 Sur 0 -- -- 83
2020-03-24 09:00:00 7 0 Calma 3 Nordeste 0 -- -- 100
2020-03-24 08:00:00 5.5 0 Calma 4 Sudoeste 0 -- -- 100
2020-03-24 07:00:00 5.3 0 Calma 3 Norte 0 -- -- 99
2020-03-24 06:00:00 5.8 0 Calma 4 Norte 0 -- -- 98
2020-03-24 05:00:00 6.1 0 Calma 3 Sudoeste 0 -- -- 98
2020-03-24 04:00:00 7.2 0 Calma 4 Sudoeste 0 -- -- 99
2020-03-24 03:00:00 9.1 0 Calma 3 Norte 0 -- -- 95
2020-03-24 02:00:00 9.5 0 Calma 2 Nordeste 0 -- -- 96
2020-03-24 01:00:00 9.4 2 Nordeste 3 Nordeste 0 -- -- 95
2020-03-24 00:00:00 9.9 0 Calma 2 Oeste 0 -- -- 94
2020-03-23 23:00:00 10.2 0 Calma 3 Sudeste 0 -- -- 92
2020-03-23 22:00:00 10.2 0 Calma 4 Sudeste 0 -- -- 92
2020-03-23 21:00:00 10.2 0 Calma 8 Oeste 0 -- -- 93
2020-03-23 20:00:00 10.3 4 Oeste 8 Oeste 0 -- -- 92
2020-03-23 19:00:00 10.6 3 Nordeste 14 Noroeste 0 -- -- 90
2020-03-23 18:00:00 11.3 4 Norte 13 Noroeste 0 -- -- 87
2020-03-23 17:00:00 12 4 Noroeste 19 Oeste 0 -- -- 84
2020-03-23 16:00:00 12.8 9 Noroeste 21 Noroeste 0 -- -- 80
2020-03-23 15:00:00 13.3 8 Oeste 19 Noroeste 0 -- -- 77
2020-03-23 14:00:00 14 8 Noroeste 21 Oeste 0 -- -- 70
2020-03-23 13:00:00 14.2 8 Noroeste 19 Sudoeste 0 -- -- 70
2020-03-23 12:00:00 15.2 7 Sudeste 17 Sur 0 -- -- 69
2020-03-23 11:00:00 13.3 8 Sudoeste 15 Oeste 0 -- -- 82
2020-03-23 10:00:00 10.8 3 Sudoeste 8 Sur 0 -- -- 94
2020-03-23 09:00:00 9.7 0 Calma 2 Sur 0 -- -- 93
2020-03-23 08:00:00 9.2 0 Calma 2 Oeste 0 -- -- 96
2020-03-23 07:00:00 9.2 0 Calma 3 Nordeste 0 -- -- 96
2020-03-23 06:00:00 9.3 0 Calma 3 Sudeste 0 -- -- 95
2020-03-23 05:00:00 9.5 0 Calma 2 Sudoeste 0 -- -- 99
2020-03-23 04:00:00 9.2 0 Calma 3 Noroeste 0 -- -- 99
2020-03-23 03:00:00 9.5 0 Calma 4 Nordeste 0 -- -- 99
2020-03-23 02:00:00 9.6 0 Calma 3 Norte 0 -- -- 98
2020-03-23 01:00:00 9.4 0 Calma 2 Este 0 -- -- 96
2020-03-23 00:00:00 10.1 0 Calma 5 Oeste 0 -- -- 95
2020-03-22 23:00:00 10.3 0 Calma 3 Noroeste 0 -- -- 93
2020-03-22 22:00:00 10.9 0 Calma 2 Nordeste 0 -- -- 90
2020-03-22 21:00:00 11.1 0 Calma 8 Oeste 0 -- -- 87
2020-03-22 20:00:00 11.3 2 Oeste 10 Sudoeste 0 -- -- 86
2020-03-22 19:00:00 11.9 6 Sur 17 Este 0 -- -- 84
2020-03-22 18:00:00 13.1 5 Este 18 Oeste 0 -- -- 79
2020-03-22 17:00:00 14.5 8 Oeste 24 Oeste 0 -- -- 75
2020-03-22 16:00:00 16.1 10 Noroeste 26 Oeste 0 -- -- 67
2020-03-22 15:00:00 15.8 9 Noroeste 20 Sudoeste 0 -- -- 68
2020-03-22 14:00:00 15.5 5 Noroeste 18 Oeste 0 -- -- 65
2020-03-22 13:00:00 14.7 4 Nordeste 20 Oeste 0 -- -- 68
2020-03-22 12:00:00 13.4 4 Sur 9 Sur 0 -- -- 76
2020-03-22 11:00:00 11.7 2 Noroeste 5 Noroeste 0 -- -- 85
2020-03-22 10:00:00 10.3 2 Sudeste 4 Sudeste 0 -- -- 99
2020-03-22 09:00:00 9.4 0 Calma 5 Oeste 0 -- -- 100
2020-03-22 08:00:00 9.3 0 Calma 4 Noroeste 0 -- -- 100
2020-03-22 07:00:00 9.3 0 Calma 8 Oeste 0 -- -- 100
2020-03-22 06:00:00 9.5 2 Oeste 5 Oeste 0 -- -- 98
2020-03-22 05:00:00 9.5 0 Calma 4 Oeste 0 -- -- 98
2020-03-22 04:00:00 9.5 2 Oeste 4 Oeste 0 -- -- 98
2020-03-22 03:00:00 9.5 0 Calma 2 Norte 0 -- -- 98
2020-03-22 02:00:00 9.2 0 Calma 2 Este 0 -- -- 99
2020-03-22 01:00:00 9.3 0 Calma 5 Noroeste 0 -- -- 98
2020-03-22 00:00:00 9.1 0 Calma 2 Nordeste 0 -- -- 96
2020-03-21 23:00:00 9.6 0 Calma 2 Noroeste 0 -- -- 96
2020-03-21 22:00:00 9.3 0 Calma 3 Sudeste 0 -- -- 97
2020-03-21 21:00:00 9 0 Calma 6 Noroeste 0 -- -- 96
2020-03-21 20:00:00 10.3 0 Calma 7 Oeste 0 -- -- 88
2020-03-21 19:00:00 13.1 5 Oeste 10 Oeste 0 -- -- 78
2020-03-21 18:00:00 16.3 5 Sur 15 Sudoeste 0 -- -- 67
2020-03-21 17:00:00 18.4 9 Sudoeste 21 Sudoeste 0 -- -- 58
2020-03-21 16:00:00 16.7 6 Oeste 22 Sudoeste 0 -- -- 60
2020-03-21 15:00:00 17.1 4 Sudoeste 28 Oeste 0 -- -- 57
2020-03-21 14:00:00 19.9 15 Sudoeste 28 Oeste 0 -- -- 52
2020-03-21 13:00:00 18.6 12 Sudoeste 24 Oeste 0 -- -- 58
2020-03-21 12:00:00 15.5 4 Sur 8 Sur 0 -- -- 74
2020-03-21 11:00:00 13.6 0 Calma 12 Sudeste 0 -- -- 81
2020-03-21 10:00:00 14.2 6 Sudeste 25 Sudeste 0 -- -- 65
2020-03-21 09:00:00 13.8 10 Sudeste 27 Sudeste 0 -- -- 65
2020-03-21 08:00:00 11.6 10 Sudeste 20 Sudeste 0 -- -- 74
2020-03-21 07:00:00 11.2 5 Este 23 Este 0 -- -- 78
2020-03-21 06:00:00 9.8 5 Nordeste 22 Este 0 -- -- 87
2020-03-21 05:00:00 8.4 2 Oeste 6 Nordeste 0 -- -- 94
2020-03-21 04:00:00 7.9 2 Noroeste 5 Norte 0 -- -- 97
2020-03-21 03:00:00 8.4 0 Calma 5 Nordeste 0 -- -- 97
2020-03-21 02:00:00 8.7 2 Norte 5 Nordeste 0 -- -- 97
2020-03-21 01:00:00 8.8 0 Calma 7 Nordeste 0 -- -- 95
2020-03-21 00:00:00 9.9 2 Norte 10 Noroeste 0 -- -- 94
2020-03-20 23:00:00 10.2 3 Oeste 7 Oeste 0 -- -- 96
2020-03-20 22:00:00 10.1 2 Norte 5 Norte 0 -- -- 96
2020-03-20 21:00:00 10.3 0 Calma 3 Sudoeste 0 -- -- 94
2020-03-20 20:00:00 11.5 0 Calma 5 Nordeste 0 -- -- 90
2020-03-20 19:00:00 14.2 0 Calma 7 Sudoeste 0 -- -- 84
2020-03-20 18:00:00 15.1 0 Calma 7 Oeste 0 -- -- 79
2020-03-20 17:00:00 14.9 4 Oeste 12 Sudoeste 0 -- -- 83
2020-03-20 16:00:00 14 5 Noroeste 9 Oeste 0 -- -- 87
2020-03-20 15:00:00 13.3 5 Oeste 11 Oeste 0 -- -- 87
2020-03-20 14:00:00 12 5 Oeste 13 Oeste 0 -- -- 91
2020-03-20 13:00:00 11.7 5 Oeste 14 Oeste 0 -- -- 93
2020-03-20 12:00:00 10.6 5 Oeste 10 Oeste 0 -- -- 96
2020-03-20 11:00:00 10.8 3 Sudoeste 19 Este 0 -- -- 95
2020-03-20 10:00:00 10.8 5 Este 19 Nordeste 0 -- -- 93
2020-03-20 09:00:00 8.2 4 Nordeste 10 Nordeste 0 -- -- 100
2020-03-20 08:00:00 7.9 2 Este 6 Nordeste 0 -- -- 100
2020-03-20 07:00:00 8.1 0 Calma 5 Nordeste 0 -- -- 100
2020-03-20 06:00:00 8 3 Nordeste 5 Norte 0 -- -- 100
2020-03-20 05:00:00 8.3 2 Norte 6 Norte 0 -- -- 100
2020-03-20 04:00:00 8.6 0 Calma 5 Nordeste 0 -- -- 100
2020-03-20 03:00:00 8.5 3 Nordeste 5 Nordeste 0.2 -- -- 100
2020-03-20 02:00:00 8.5 2 Este 5 Nordeste 0 -- -- 100
2020-03-20 01:00:00 8.4 2 Norte 6 Oeste 0 -- -- 100
2020-03-20 00:00:00 8.6 0 Calma 3 Oeste 0 -- -- 97
2020-03-19 23:00:00 10 0 Calma 3 Norte 0 -- -- 95
2020-03-19 22:00:00 10.4 0 Calma 4 Nordeste 0 -- -- 97
2020-03-19 21:00:00 10.8 0 Calma 3 Nordeste 0 -- -- 96
2020-03-19 20:00:00 12.1 0 Calma 5 Oeste 0 -- -- 92
2020-03-19 19:00:00 14.9 0 Calma 6 Sudoeste 0 -- -- 85
2020-03-19 18:00:00 16 2 Norte 13 Oeste 0 -- -- 80
2020-03-19 17:00:00 16.1 4 Nordeste 11 Nordeste 0 -- -- 82
2020-03-19 16:00:00 16.8 2 Sur 10 Oeste 0 -- -- 77
2020-03-19 15:00:00 17 6 Oeste 14 Sur 0 -- -- 75
2020-03-19 14:00:00 15.3 8 Oeste 15 Oeste 0 -- -- 79
2020-03-19 13:00:00 13.1 8 Oeste 15 Oeste 0 -- -- 91
2020-03-19 12:00:00 11.2 5 Sudoeste 12 Sudoeste 0 -- -- 100
2020-03-19 11:00:00 9.3 3 Sudoeste 7 Sur 0 -- -- 100
2020-03-19 10:00:00 8.5 3 Sudoeste 9 Sudoeste 0 -- -- 100
2020-03-19 09:00:00 7.6 3 Sudoeste 6 Sudoeste 0 -- -- 100
2020-03-19 08:00:00 6.8 0 Calma 3 Sudoeste 0 -- -- 100
2020-03-19 07:00:00 7.5 0 Calma 3 Sudoeste 0 -- -- 100
2020-03-19 06:00:00 7.4 0 Calma 3 Norte 0 -- -- 100
2020-03-19 05:00:00 7.6 0 Calma 4 Norte 0 -- -- 100
2020-03-19 04:00:00 7.5 0 Calma 4 Nordeste 0 -- -- 100
2020-03-19 03:00:00 7.6 0 Calma 4 Norte 0 -- -- 100
2020-03-19 02:00:00 8.1 0 Calma 3 Oeste 0 -- -- 100
2020-03-19 01:00:00 8.7 0 Calma 3 Sudoeste 0 -- -- 98
2020-03-19 00:00:00 9.3 0 Calma 3 Nordeste 0 -- -- 97
2020-03-18 23:00:00 9.8 0 Calma 3 Nordeste 0 -- -- 96
2020-03-18 22:00:00 9.7 0 Calma 3 Nordeste 0 -- -- 97
2020-03-18 21:00:00 10.3 0 Calma 3 Sudeste 0 -- -- 94
2020-03-18 20:00:00 12.2 0 Calma 5 Este 0 -- -- 87
2020-03-18 19:00:00 15.8 0 Calma 7 Oeste 0 -- -- 77
2020-03-18 18:00:00 18.3 3 Sudoeste 15 Sudoeste 0 -- -- 69
2020-03-18 17:00:00 19.8 8 Sudoeste 19 Oeste 0 -- -- 63
2020-03-18 16:00:00 20.2 9 Sudoeste 19 Sudoeste 0 -- -- 59
2020-03-18 15:00:00 20.3 9 Sudoeste 21 Sur 0 -- -- 53
2020-03-18 14:00:00 18.5 8 Sudoeste 17 Sudoeste 0 -- -- 63
2020-03-18 13:00:00 16.1 6 Sudoeste 13 Sudoeste 0 -- -- 74
2020-03-18 12:00:00 13.7 4 Sudoeste 8 Sudoeste 0 -- -- 82
2020-03-18 11:00:00 11.7 3 Sudoeste 6 Sudeste 0 -- -- 89
2020-03-18 10:00:00 9.2 0 Calma 4 Sudoeste 0 -- -- 100
2020-03-18 09:00:00 6.8 0 Calma 3 Norte 0 -- -- 100
2020-03-18 08:00:00 5.8 0 Calma 3 Nordeste 0 -- -- 100
2020-03-18 07:00:00 6.6 0 Calma 4 Nordeste 0 -- -- 100
2020-03-18 06:00:00 7.6 0 Calma 4 Sudoeste 0 -- -- 100
2020-03-18 05:00:00 8 0 Calma 3 Sur 0 -- -- 100
2020-03-18 04:00:00 8.4 0 Calma 2 Este 0 -- -- 100
2020-03-18 03:00:00 8.5 0 Calma 2 Sudoeste 0 -- -- 100
2020-03-18 02:00:00 8.5 0 Calma 2 Nordeste 0 -- -- 100
2020-03-18 01:00:00 8 0 Calma 3 Noroeste 0 -- -- 100
2020-03-18 00:00:00 8.6 0 Calma 4 Norte 0 -- -- 97
2020-03-17 23:00:00 9.6 0 Calma 2 Norte 0 -- -- 97
2020-03-17 22:00:00 9.8 0 Calma 4 Noroeste 0 -- -- 97
2020-03-17 21:00:00 10 0 Calma 2 Nordeste 0 -- -- 96
2020-03-17 20:00:00 10.2 0 Calma 4 Oeste 0 -- -- 94
2020-03-17 19:00:00 10.6 0 Calma 9 Noroeste 0 -- -- 92
2020-03-17 18:00:00 10.8 4 Sudoeste 15 Noroeste 0 -- -- 90
2020-03-17 17:00:00 11.7 6 Oeste 16 Oeste 0 -- -- 85
2020-03-17 16:00:00 12.1 7 Noroeste 22 Oeste 0 -- -- 83
2020-03-17 15:00:00 13 6 Nordeste 17 Noroeste 0 -- -- 78
2020-03-17 14:00:00 13 9 Sudoeste 21 Oeste 0 -- -- 79
2020-03-17 13:00:00 13.5 9 Sudoeste 20 Oeste 0 -- -- 79
2020-03-17 12:00:00 11.3 6 Oeste 13 Oeste 0 -- -- 80
2020-03-17 11:00:00 10.1 3 Sur 6 Sur 0 -- -- 82
2020-03-17 10:00:00 7.8 0 Calma 5 Sudoeste 0 -- -- 94
2020-03-17 09:00:00 6.6 0 Calma 4 Noroeste 0 -- -- 99
2020-03-17 08:00:00 6.1 0 Calma 4 Sur 0 -- -- 100
2020-03-17 07:00:00 6.1 0 Calma 3 Sudoeste 0 -- -- 100
2020-03-17 06:00:00 6 0 Calma 6 Nordeste 0 -- -- 100
2020-03-17 05:00:00 6.1 0 Calma 4 Nordeste 0 -- -- 100
2020-03-17 04:00:00 6.1 0 Calma 5 Nordeste 0 -- -- 100
2020-03-17 03:00:00 6 4 Nordeste 11 Nordeste 0.2 -- -- 99
2020-03-17 02:00:00 6.1 4 Nordeste 8 Nordeste 0.4 -- -- 100
2020-03-17 01:00:00 6.1 2 Noroeste 6 Oeste 0.6 -- -- 100
2020-03-17 00:00:00 6.2 0 Calma 6 Este 0 -- -- 100
2020-03-16 23:00:00 6.3 0 Calma 2 Sudeste 0 -- -- 99
2020-03-16 22:00:00 6.3 0 Calma 5 Oeste 0.2 -- -- 99
2020-03-16 21:00:00 6.3 0 Calma 8 Este 0.4 -- -- 98
2020-03-16 20:00:00 6.4 0 Calma 4 Oeste 0.2 -- -- 97
2020-03-16 19:00:00 6.5 2 Sudoeste 8 Nordeste 0 -- -- 97
2020-03-16 18:00:00 6.5 6 Oeste 22 Noroeste 2.6 -- -- 95
2020-03-16 17:00:00 6.8 4 Norte 21 Noroeste 1.8 -- -- 90
2020-03-16 16:00:00 8.1 6 Oeste 24 Noroeste 1.4 -- -- 91
2020-03-16 15:00:00 9 5 Este 26 Oeste 0.4 -- -- 83
2020-03-16 14:00:00 8.1 3 Sudoeste 14 Oeste 0 -- -- 93
2020-03-16 13:00:00 6.4 6 Sudoeste 15 Oeste 0.6 -- -- 94
2020-03-16 12:00:00 6 4 Noroeste 13 Oeste 1 -- -- 95
2020-03-16 11:00:00 5.1 3 Sudoeste 7 Oeste 1.4 -- -- 99
2020-03-16 10:00:00 4.4 3 Oeste 9 Oeste 1 -- -- 98
2020-03-16 09:00:00 3.5 0 Calma 12 Noroeste 1 -- -- 100
2020-03-16 08:00:00 3.1 0 Calma 5 Nordeste 0.6 -- -- 99
2020-03-16 07:00:00 2.7 0 Calma 4 Este 0.6 -- -- 100
2020-03-16 06:00:00 2.3 0 Calma 4 Sudoeste 0.2 -- -- 99
2020-03-16 05:00:00 1.9 0 Calma 4 Sudeste 1.2 -- -- 99
2020-03-16 04:00:00 1.9 2 Norte 4 Noroeste 2.2 -- -- 99
2020-03-16 03:00:00 1.8 0 Calma 4 Sudeste 1.2 -- -- 99
2020-03-16 02:00:00 2 0 Calma 7 Sur 2 -- -- 98
2020-03-16 01:00:00 2.1 0 Calma 5 Sudeste 1.6 -- -- 97
2020-03-16 00:00:00 2.3 0 Calma 5 Norte 2.2 -- -- 97
2020-03-15 23:00:00 2.6 0 Calma 8 Norte 3.4 -- -- 97
2020-03-15 22:00:00 3.5 3 Nordeste 9 Norte 4 -- -- 93
2020-03-15 21:00:00 5 3 Norte 9 Nordeste 1.2 -- -- 89
2020-03-15 20:00:00 5.8 0 Calma 8 Noroeste 0.8 -- -- 95
2020-03-15 19:00:00 6.3 2 Noroeste 9 Noroeste 1.4 -- -- 93
2020-03-15 18:00:00 7.1 5 Oeste 16 Noroeste 2.2 -- -- 92
2020-03-15 17:00:00 8.8 3 Este 17 Sudoeste 1 -- -- 89
2020-03-15 16:00:00 10.8 5 Oeste 22 Noroeste 0 -- -- 82
2020-03-15 15:00:00 14.7 8 Sur 17 Nordeste 0 -- -- 64
2020-03-15 14:00:00 10.9 5 Norte 16 Noroeste 0 -- -- 81
2020-03-15 13:00:00 10.8 8 Noroeste 22 Oeste 0 -- -- 81
2020-03-15 12:00:00 11.8 7 Oeste 22 Noroeste 0 -- -- 80
2020-03-15 11:00:00 8.2 4 Sudeste 9 Sudoeste 0 -- -- 98
2020-03-15 10:00:00 6.5 2 Sudoeste 6 Sur 0 -- -- 100
2020-03-15 09:00:00 3.3 0 Calma 8 Norte 0 -- -- 100
2020-03-15 08:00:00 3 0 Calma 8 Oeste 0 -- -- 100
2020-03-15 07:00:00 3.9 0 Calma 11 Norte 0 -- -- 99
2020-03-15 06:00:00 4.6 4 Nordeste 11 Norte 0 -- -- 100
2020-03-15 05:00:00 4.1 0 Calma 5 Norte 0 -- -- 100
2020-03-15 04:00:00 5 0 Calma 9 Sudoeste 0 -- -- 100
2020-03-15 03:00:00 4.9 0 Calma 4 Noroeste 0 -- -- 100
2020-03-15 02:00:00 5 2 Norte 5 Norte 0 -- -- 99
2020-03-15 01:00:00 5.2 0 Calma 3 Nordeste 0 -- -- 99
2020-03-15 00:00:00 5.3 0 Calma 2 Nordeste 0 -- -- 99
2020-03-14 23:00:00 5.8 0 Calma 3 Nordeste 0 -- -- 98
2020-03-14 22:00:00 6.4 0 Calma 3 Este 0 -- -- 96
2020-03-14 21:00:00 7.1 0 Calma 3 Norte 0 -- -- 93
2020-03-14 20:00:00 8.4 2 Nordeste 5 Oeste 0 -- -- 88
2020-03-14 19:00:00 11.9 3 Sur 19 Sur 0 -- -- 75
2020-03-14 18:00:00 14.6 6 Sudoeste 24 Oeste 0 -- -- 66
2020-03-14 17:00:00 15.9 11 Oeste 29 Oeste 0 -- -- 61
2020-03-14 16:00:00 16 10 Oeste 27 Oeste 0 -- -- 60
2020-03-14 15:00:00 16.7 9 Oeste 24 Sudoeste 0 -- -- 56
2020-03-14 14:00:00 16.9 11 Sudoeste 23 Sudoeste 0 -- -- 57
2020-03-14 13:00:00 15.3 11 Sudoeste 21 Sur 0 -- -- 61
2020-03-14 12:00:00 13.5 9 Sur 16 Sur 0 -- -- 63
2020-03-14 11:00:00 11 6 Sudoeste 11 Sudoeste 0 -- -- 71
2020-03-14 10:00:00 8.5 3 Sur 5 Sudoeste 0 -- -- 75
2020-03-14 09:00:00 3.8 0 Calma 7 Norte 0 -- -- 95
2020-03-14 08:00:00 4.3 3 Noroeste 6 Oeste 0 -- -- 92
2020-03-14 07:00:00 4.6 0 Calma 5 Sur 0 -- -- 95
2020-03-14 06:00:00 5.1 4 Noroeste 5 Oeste 0 -- -- 90
2020-03-14 05:00:00 6.2 0 Calma 4 Sur 0 -- -- 91
2020-03-14 04:00:00 8 2 Norte 8 Sudeste 0 -- -- 88
2020-03-14 03:00:00 8.2 0 Calma 4 Nordeste 0 -- -- 96
2020-03-14 02:00:00 8.3 0 Calma 2 Norte 0 -- -- 96
2020-03-14 01:00:00 8.2 0 Calma 2 Este 0 -- -- 96
2020-03-14 00:00:00 8.6 2 Noroeste 8 Noroeste 0 -- -- 93
2020-03-13 23:00:00 9 4 Sudeste 12 Sudeste 0 -- -- 90
2020-03-13 22:00:00 9 0 Calma 4 Oeste 0 -- -- 93
2020-03-13 21:00:00 9 0 Calma 6 Sudoeste 0 -- -- 92
2020-03-13 20:00:00 9.2 2 Sur 9 Noroeste 0 -- -- 90
2020-03-13 19:00:00 9.6 3 Norte 8 Sudoeste 0 -- -- 88
2020-03-13 18:00:00 10.3 4 Oeste 13 Sudoeste 0 -- -- 85
2020-03-13 17:00:00 10.6 3 Sur 16 Oeste 0 -- -- 84
2020-03-13 16:00:00 10.8 7 Oeste 19 Oeste 0 -- -- 83
2020-03-13 15:00:00 10.7 7 Oeste 18 Sudoeste 0 -- -- 84
2020-03-13 14:00:00 11.4 10 Sudoeste 19 Sudoeste 0 -- -- 81
2020-03-13 13:00:00 11.8 10 Sudoeste 17 Sudoeste 0 -- -- 84
2020-03-13 12:00:00 11 9 Sudoeste 19 Sudoeste 0 -- -- 88
2020-03-13 11:00:00 9 9 Sudoeste 15 Oeste 0 -- -- 97
2020-03-13 10:00:00 8 5 Sudoeste 13 Oeste 0 -- -- 100
2020-03-13 09:00:00 7.3 3 Sudoeste 7 Sudoeste 0.4 -- -- 100
2020-03-13 08:00:00 7 3 Sudoeste 9 Oeste 0 -- -- 100
2020-03-13 07:00:00 7.2 0 Calma 9 Oeste 0.2 -- -- 100
2020-03-13 06:00:00 7.2 3 Sur 14 Oeste 0.2 -- -- 100
2020-03-13 05:00:00 7.2 8 Oeste 15 Oeste 0.2 -- -- 100
2020-03-13 04:00:00 7.3 8 Oeste 21 Oeste 0.4 -- -- 100
2020-03-13 03:00:00 7.6 9 Oeste 20 Oeste 0.4 -- -- 100
2020-03-13 02:00:00 7.7 8 Oeste 18 Oeste 0.4 -- -- 100
2020-03-13 01:00:00 7.9 7 Oeste 15 Oeste 0.6 -- -- 100
2020-03-13 00:00:00 8.2 6 Oeste 17 Oeste 0.6 -- -- 100
2020-03-12 23:00:00 8.4 6 Oeste 16 Oeste 0.6 -- -- 100
2020-03-12 22:00:00 8.6 6 Sudoeste 12 Oeste 0.4 -- -- 100
2020-03-12 21:00:00 8.9 4 Sudoeste 9 Oeste 0.2 -- -- 100
2020-03-12 20:00:00 9 4 Oeste 10 Oeste 0.2 -- -- 100
2020-03-12 19:00:00 9.3 4 Oeste 11 Oeste 0 -- -- 100
2020-03-12 18:00:00 9.8 5 Oeste 9 Oeste 0 -- -- 99
2020-03-12 17:00:00 10 5 Sudoeste 9 Oeste 0.2 -- -- 100
2020-03-12 16:00:00 9.9 3 Sudoeste 17 Oeste 0 -- -- 99
2020-03-12 15:00:00 9.8 7 Noroeste 22 Noroeste 0.2 -- -- 94
2020-03-12 14:00:00 12.2 5 Sudoeste 12 Sudoeste 0 -- -- 97
2020-03-12 13:00:00 11.8 6 Oeste 12 Sudoeste 0 -- -- 97
2020-03-12 12:00:00 11.2 6 Sudoeste 9 Oeste 0 -- -- 100
2020-03-12 11:00:00 10.6 2 Sudoeste 9 Oeste 0 -- -- 100
2020-03-12 10:00:00 10.3 4 Oeste 6 Oeste 0 -- -- 100
2020-03-12 09:00:00 10.4 0 Calma 4 Oeste 0.2 -- -- 99
2020-03-12 08:00:00 10.4 0 Calma 4 Noroeste 0 -- -- 98
2020-03-12 07:00:00 10.6 0 Calma 6 Oeste 0 -- -- 96
2020-03-12 06:00:00 10.8 0 Calma 6 Nordeste 0 -- -- 95
2020-03-12 05:00:00 10.6 0 Calma 5 Sudoeste 0 -- -- 97
2020-03-12 04:00:00 10.5 2 Sudoeste 8 Sur 0 -- -- 98
2020-03-12 03:00:00 10.5 0 Calma 2 Sur 0 -- -- 97
2020-03-12 02:00:00 10.6 0 Calma 3 Norte 0 -- -- 96
2020-03-12 01:00:00 10.5 0 Calma 2 Este 0 -- -- 95
2020-03-12 00:00:00 10.2 0 Calma 5 Noroeste 0 -- -- 96
2020-03-11 23:00:00 9.4 3 Noroeste 5 Noroeste 0 -- -- 97
2020-03-11 22:00:00 9.6 0 Calma 5 Sudoeste 0 -- -- 92
2020-03-11 21:00:00 10.9 0 Calma 6 Este 0 -- -- 88
2020-03-11 20:00:00 12.6 3 Este 9 Oeste 0 -- -- 81
2020-03-11 19:00:00 16.5 3 Sur 13 Sudoeste 0 -- -- 66
2020-03-11 18:00:00 20.2 8 Oeste 19 Oeste 0 -- -- 55
2020-03-11 17:00:00 21.7 8 Oeste 24 Oeste 0 -- -- 51
2020-03-11 16:00:00 22.3 11 Sudoeste 23 Oeste 0 -- -- 52
2020-03-11 15:00:00 22.4 12 Sudoeste 24 Oeste 0 -- -- 52
2020-03-11 14:00:00 21.4 12 Sudoeste 22 Sudoeste 0 -- -- 50
2020-03-11 13:00:00 19.1 8 Sudoeste 16 Sur 0 -- -- 59
2020-03-11 12:00:00 16.4 6 Sudoeste 11 Sudoeste 0 -- -- 62
2020-03-11 11:00:00 13.7 4 Sudoeste 7 Sudoeste 0 -- -- 65
2020-03-11 10:00:00 10.9 3 Sur 6 Sur 0 -- -- 78
2020-03-11 09:00:00 6.1 0 Calma 6 Sudoeste 0 -- -- 95
2020-03-11 08:00:00 5.1 0 Calma 2 Norte 0 -- -- 96
2020-03-11 07:00:00 5 0 Calma 3 Oeste 0 -- -- 96
2020-03-11 06:00:00 5.5 0 Calma 3 Nordeste 0 -- -- 94
2020-03-11 05:00:00 5.6 0 Calma 3 Este 0 -- -- 96
2020-03-11 04:00:00 6 0 Calma 3 Oeste 0 -- -- 95
2020-03-11 03:00:00 6.1 2 Este 4 Nordeste 0 -- -- 94
2020-03-11 02:00:00 6.5 0 Calma 4 Noroeste 0 -- -- 92
2020-03-11 01:00:00 7 3 Nordeste 6 Noroeste 0 -- -- 91
2020-03-11 00:00:00 7.1 2 Este 4 Nordeste 0 -- -- 90
2020-03-10 23:00:00 7.6 0 Calma 4 Sur 0 -- -- 88
2020-03-10 22:00:00 8 2 Nordeste 3 Nordeste 0 -- -- 86
2020-03-10 21:00:00 9 2 Nordeste 6 Este 0 -- -- 80
2020-03-10 20:00:00 11.3 2 Noroeste 13 Noroeste 0 -- -- 71
2020-03-10 19:00:00 14.4 4 Oeste 18 Oeste 0 -- -- 59
2020-03-10 18:00:00 17.6 8 Oeste 22 Oeste 0 -- -- 57
2020-03-10 17:00:00 18.8 7 Noroeste 24 Oeste 0 -- -- 59
2020-03-10 16:00:00 19.5 10 Oeste 25 Sudoeste 0 -- -- 52
2020-03-10 15:00:00 18.7 10 Sudoeste 21 Sudoeste 0 -- -- 60
2020-03-10 14:00:00 17.9 10 Sudoeste 22 Sudoeste 0 -- -- 61
2020-03-10 13:00:00 15.9 10 Sudoeste 19 Oeste 0 -- -- 69
2020-03-10 12:00:00 14.5 9 Sudoeste 17 Oeste 0 -- -- 73
2020-03-10 11:00:00 11.7 4 Sur 10 Oeste 0 -- -- 81
2020-03-10 10:00:00 8.9 4 Oeste 9 Oeste 0 -- -- 87
2020-03-10 09:00:00 7.1 2 Sur 8 Oeste 0 -- -- 81
2020-03-10 08:00:00 5.6 0 Calma 5 Oeste 0 -- -- 84
2020-03-10 07:00:00 5.4 0 Calma 7 Oeste 0 -- -- 85
2020-03-10 06:00:00 5.2 0 Calma 3 Sudoeste 0 -- -- 88
2020-03-10 05:00:00 4.7 0 Calma 2 Nordeste 0 -- -- 89
2020-03-10 04:00:00 5.3 0 Calma 4 Sur 0 -- -- 85
2020-03-10 03:00:00 5.4 0 Calma 4 Sudoeste 0 -- -- 88
2020-03-10 02:00:00 6.4 0 Calma 5 Sudoeste 0 -- -- 82
2020-03-10 01:00:00 6.7 0 Calma 5 Norte 0 -- -- 81
2020-03-10 00:00:00 7.9 3 Norte 6 Nordeste 0 -- -- 81
2020-03-09 23:00:00 7.5 2 Noroeste 4 Noroeste 0 -- -- 87
2020-03-09 22:00:00 7.6 0 Calma 3 Norte 0 -- -- 91
2020-03-09 21:00:00 8.4 0 Calma 3 Este 0 -- -- 87
2020-03-09 20:00:00 9.2 2 Norte 5 Noroeste 0 -- -- 80
2020-03-09 19:00:00 12.5 0 Calma 7 Sur 0 -- -- 66
2020-03-09 18:00:00 15.4 3 Sur 14 Sudoeste 0 -- -- 52
2020-03-09 17:00:00 16 7 Sur 13 Sudoeste 0 -- -- 51
2020-03-09 16:00:00 14.8 5 Sudoeste 17 Sudoeste 0 -- -- 54
2020-03-09 15:00:00 14.5 7 Sudoeste 15 Oeste 0 -- -- 57
2020-03-09 14:00:00 14.1 7 Sudoeste 12 Sudoeste 0 -- -- 52
2020-03-09 13:00:00 13 4 Este 14 Sudoeste 0 -- -- 58
2020-03-09 12:00:00 11.7 6 Nordeste 13 Nordeste 0 -- -- 64
2020-03-09 11:00:00 10.8 2 Sudeste 6 Sudeste 0 -- -- 72
2020-03-09 10:00:00 9.6 2 Sudeste 9 Sudoeste 0 -- -- 76
2020-03-09 09:00:00 8 3 Este 10 Oeste 0 -- -- 79
2020-03-09 08:00:00 7.1 3 Norte 15 Norte 0 -- -- 78
2020-03-09 07:00:00 8.3 4 Norte 15 Norte 0 -- -- 77
2020-03-09 06:00:00 8.6 4 Norte 14 Oeste 0 -- -- 76
2020-03-09 05:00:00 8 2 Noroeste 7 Nordeste 0 -- -- 82
2020-03-09 04:00:00 8 0 Calma 9 Noroeste 0 -- -- 89
2020-03-09 03:00:00 7.6 3 Nordeste 5 Nordeste 0 -- -- 92
2020-03-09 02:00:00 7.7 0 Calma 9 Oeste 0 -- -- 91
2020-03-09 01:00:00 8.5 3 Norte 16 Nordeste 1 -- -- 84
2020-03-09 00:00:00 9.3 4 Norte 10 Oeste 0.2 -- -- 86
2020-03-08 23:00:00 10.2 3 Sudoeste 9 Oeste 0 -- -- 76
2020-03-08 22:00:00 9.5 3 Nordeste 13 Oeste 0.2 -- -- 87
2020-03-08 21:00:00 9.9 5 Noroeste 12 Nordeste 0 -- -- 87
2020-03-08 20:00:00 11.1 4 Noroeste 24 Oeste 0 -- -- 77
2020-03-08 19:00:00 11.8 3 Sudeste 19 Oeste 0 -- -- 76
2020-03-08 18:00:00 13.1 10 Noroeste 22 Norte 0 -- -- 78
2020-03-08 17:00:00 14.6 6 Este 18 Oeste 0 -- -- 74
2020-03-08 16:00:00 16.4 6 Oeste 19 Oeste 0 -- -- 65
2020-03-08 15:00:00 19 8 Sudoeste 24 Noroeste 0 -- -- 56
2020-03-08 14:00:00 18 9 Oeste 15 Sudoeste 0 -- -- 54
2020-03-08 13:00:00 15.1 5 Sur 10 Sudoeste 0 -- -- 62
2020-03-08 12:00:00 12.2 4 Noroeste 9 Norte 0 -- -- 69
2020-03-08 11:00:00 11.1 5 Norte 12 Noroeste 0 -- -- 65
2020-03-08 10:00:00 9.7 0 Calma 5 Oeste 0 -- -- 73
2020-03-08 09:00:00 8.2 0 Calma 9 Sudoeste 0 -- -- 83
2020-03-08 08:00:00 6.8 3 Norte 8 Oeste 0 -- -- 86
2020-03-08 07:00:00 6 0 Calma 5 Norte 0 -- -- 92
2020-03-08 06:00:00 5.5 4 Norte 7 Este 0 -- -- 94
2020-03-08 05:00:00 4.6 0 Calma 4 Sudoeste 0 -- -- 98
2020-03-08 04:00:00 3.6 0 Calma 4 Nordeste 0 -- -- 99
2020-03-08 03:00:00 3.7 0 Calma 9 Norte 0 -- -- 95
2020-03-08 02:00:00 4.2 2 Oeste 6 Sudoeste 0 -- -- 99
2020-03-08 01:00:00 4 0 Calma 5 Oeste 0 -- -- 96
2020-03-08 00:00:00 4.1 0 Calma 3 Nordeste 0 -- -- 96
2020-03-07 23:00:00 5.3 0 Calma 6 Noroeste 0 -- -- 91
2020-03-07 22:00:00 5.2 0 Calma 4 Sudoeste 0 -- -- 93
2020-03-07 21:00:00 6.1 0 Calma 4 Este 0 -- -- 90
2020-03-07 20:00:00 7.6 2 Nordeste 9 Sudoeste 0 -- -- 84
2020-03-07 19:00:00 10.8 5 Sudoeste 17 Oeste 0 -- -- 71
2020-03-07 18:00:00 13 9 Noroeste 23 Noroeste 0 -- -- 64
2020-03-07 17:00:00 14.4 10 Oeste 20 Sudoeste 0 -- -- 60
2020-03-07 16:00:00 15.7 10 Oeste 19 Oeste 0 -- -- 56
2020-03-07 15:00:00 16 9 Sudoeste 17 Sudoeste 0 -- -- 57
2020-03-07 14:00:00 14.3 7 Oeste 17 Oeste 0 -- -- 58
2020-03-07 13:00:00 12.8 3 Sudoeste 10 Sudoeste 0 -- -- 66
2020-03-07 12:00:00 11.3 2 Sudeste 5 Sudoeste 0 -- -- 70
2020-03-07 11:00:00 9.5 3 Sudoeste 7 Sudeste 0 -- -- 90
2020-03-07 10:00:00 8.1 0 Calma 6 Oeste 0 -- -- 95
2020-03-07 09:00:00 7.6 0 Calma 4 Sur 0 -- -- 96
2020-03-07 08:00:00 7.2 0 Calma 6 Norte 0 -- -- 98
2020-03-07 07:00:00 7.1 4 Norte 10 Norte 1 -- -- 97
2020-03-07 06:00:00 7.3 0 Calma 4 Sudeste 0 -- -- 96
2020-03-07 05:00:00 7.2 0 Calma 6 Nordeste 0 -- -- 96
2020-03-07 04:00:00 7.2 5 Noroeste 10 Oeste 0 -- -- 94
2020-03-07 03:00:00 6.7 3 Nordeste 6 Este 0.6 -- -- 99
2020-03-07 02:00:00 5.9 2 Norte 7 Oeste 0.4 -- -- 97
2020-03-07 01:00:00 6.3 4 Oeste 13 Sudeste 0 -- -- 90
2020-03-07 00:00:00 6.3 3 Nordeste 12 Sudeste 0.2 -- -- 89
2020-03-06 23:00:00 6.7 3 Noroeste 10 Nordeste 0 -- -- 80
2020-03-06 22:00:00 7.1 4 Norte 15 Norte 0 -- -- 74
2020-03-06 21:00:00 6.4 3 Nordeste 16 Norte 0 -- -- 85
2020-03-06 20:00:00 6 3 Norte 15 Nordeste 0 -- -- 87
2020-03-06 19:00:00 5.5 3 Norte 12 Sudoeste 0.4 -- -- 93
2020-03-06 18:00:00 5.6 3 Este 25 Norte 2 -- -- 95
2020-03-06 17:00:00 6.2 4 Noroeste 13 Norte 1.2 -- -- 91
2020-03-06 16:00:00 6 6 Nordeste 31 Oeste 1.2 -- -- 85
2020-03-06 15:00:00 6.1 8 Nordeste 23 Oeste 1.6 -- -- 84
2020-03-06 14:00:00 7.6 4 Norte 19 Oeste 0.4 -- -- 74
2020-03-06 13:00:00 6.9 11 Oeste 25 Oeste 0.4 -- -- 81
2020-03-06 12:00:00 7.3 9 Oeste 26 Noroeste 0.4 -- -- 74
2020-03-06 11:00:00 6.3 7 Noroeste 29 Nordeste 0.2 -- -- 78
2020-03-06 10:00:00 5.6 6 Nordeste 26 Noroeste 0.4 -- -- 85
2020-03-06 09:00:00 4.4 7 Noroeste 45 Nordeste 1.6 -- -- 90
2020-03-06 08:00:00 4.7 7 Nordeste 23 Nordeste 2 -- -- 88
2020-03-06 07:00:00 4.9 8 Noroeste 23 Nordeste 1.4 -- -- 87
2020-03-06 06:00:00 5.2 6 Noroeste 40 Oeste 1.2 -- -- 83
2020-03-06 05:00:00 6.1 13 Noroeste 40 Oeste 0.8 -- -- 80
2020-03-06 04:00:00 6.5 8 Sur 31 Oeste 0.4 -- -- 78
2020-03-06 03:00:00 7.6 7 Norte 29 Noroeste 0.2 -- -- 72
2020-03-06 02:00:00 7.2 12 Oeste 44 Sudoeste 0.8 -- -- 79
2020-03-06 01:00:00 7.5 6 Norte 28 Sur 0.2 -- -- 81
2020-03-06 00:00:00 7.7 6 Sudeste 26 Sur 0 -- -- 77
2020-03-05 23:00:00 6.9 11 Sudeste 21 Sudeste 0 -- -- 80
2020-03-05 22:00:00 6.4 4 Este 10 Nordeste 0 -- -- 94
2020-03-05 21:00:00 6.7 3 Este 15 Sur 0.4 -- -- 91
2020-03-05 20:00:00 8.2 6 Norte 12 Este 0.2 -- -- 81
2020-03-05 19:00:00 8.7 4 Noroeste 41 Sudoeste 0 -- -- 78
2020-03-05 18:00:00 9.5 4 Oeste 15 Norte 0 -- -- 78
2020-03-05 17:00:00 9.3 6 Norte 20 Oeste 0.4 -- -- 77
2020-03-05 16:00:00 9.4 10 Oeste 37 Oeste 0.8 -- -- 78
2020-03-05 15:00:00 8.7 9 Nordeste 23 Oeste 1.4 -- -- 82
2020-03-05 14:00:00 9.6 4 Sudeste 33 Noroeste 0.8 -- -- 83
2020-03-05 13:00:00 11.2 6 Este 38 Noroeste 0.2 -- -- 77
2020-03-05 12:00:00 13.2 7 Sudeste 25 Oeste 0 -- -- 52
2020-03-05 11:00:00 15 8 Noroeste 29 Oeste 0 -- -- 49
2020-03-05 10:00:00 11.4 4 Norte 15 Noroeste 0 -- -- 74
2020-03-05 09:00:00 10.1 9 Nordeste 20 Este 0.6 -- -- 87
2020-03-05 08:00:00 10.7 7 Norte 23 Norte 4.8 -- -- 86
2020-03-05 07:00:00 11.6 7 Norte 21 Noroeste 2.6 -- -- 88
2020-03-05 06:00:00 17.1 14 Sudeste 49 Sudeste 0 -- -- 58
2020-03-05 05:00:00 17.1 25 Sudeste 45 Sudeste 0 -- -- 58
2020-03-05 04:00:00 17.3 17 Sudeste 46 Sudeste 0 -- -- 58
2020-03-05 03:00:00 17.6 22 Sudeste 54 Sudeste -- -- -- 55
2020-03-05 02:00:00 17.8 19 Sudeste 45 Este 0 -- -- 55
2020-03-05 01:00:00 17.8 20 Sudeste 35 Sudeste 0 -- -- 55
2020-03-05 00:00:00 17.7 20 Sudeste 41 Este 0 -- -- 53